Time;durP1;ratioP1;P1;durP2;ratioP2;P2;SDS_P1;SDS_P2;PMS_P1;PMS_P2;Temp;Humidity;BMP_temperature;BMP_pressure;BME280_temperature;BME280_humidity;BME280_pressure;Samples;Min_cycle;Max_cycle;Signal;HPM_P1;HPM_P2
2023/08/03 00:00:18;;;;;;;;;;;17.50;85.30;;;;;;5114879;28;19907;-29
2023/08/03 00:02:44;;;;;;;;;;;17.50;85.50;;;;;;5114884;28;19908;-33
2023/08/03 00:05:10;;;;;;;;;;;17.50;85.60;;;;;;5096284;28;19919;-30
2023/08/03 00:07:35;;;;;;;;;;;17.50;85.70;;;;;;5115318;28;20321;-30
2023/08/03 00:10:01;;;;;;;;;;;17.50;85.70;;;;;;5114801;28;19966;-38
2023/08/03 00:12:27;;;;;;;;;;;17.50;85.90;;;;;;5114716;28;19908;-29
2023/08/03 00:14:52;;;;;;;;;;;17.40;85.80;;;;;;5114536;28;19911;-29
2023/08/03 00:17:18;;;;;;;;;;;17.40;85.90;;;;;;5114893;28;19915;-29
2023/08/03 00:19:43;;;;;;;;;;;17.40;85.90;;;;;;5114578;28;19950;-29
2023/08/03 00:22:09;;;;;;;;;;;17.40;86.10;;;;;;5114510;28;19911;-29
2023/08/03 00:24:35;;;;;;;;;;;17.40;86.10;;;;;;5114401;28;19908;-30
2023/08/03 00:27:00;;;;;;;;;;;17.40;86.10;;;;;;5114400;28;19915;-29
2023/08/03 00:29:26;;;;;;;;;;;17.40;86.20;;;;;;5114639;28;19919;-29
2023/08/03 00:31:51;;;;;;;;;;;17.40;86.30;;;;;;5114330;28;19908;-29
2023/08/03 00:34:17;;;;;;;;;;;17.40;86.30;;;;;;5095854;28;20359;-30
2023/08/03 00:36:42;;;;;;;;;;;17.40;86.40;;;;;;5114188;28;19908;-29
2023/08/03 00:39:08;;;;;;;;;;;17.40;86.40;;;;;;5114486;28;19965;-31
2023/08/03 00:41:33;;;;;;;;;;;17.40;86.40;;;;;;5114127;28;19912;-29
2023/08/03 00:43:59;;;;;;;;;;;17.40;86.40;;;;;;5114151;28;19930;-33
2023/08/03 00:46:24;;;;;;;;;;;17.40;86.50;;;;;;5114101;28;19984;-30
2023/08/03 00:48:50;;;;;;;;;;;17.40;86.30;;;;;;5114022;28;19908;-32
2023/08/03 00:51:15;;;;;;;;;;;17.50;86.40;;;;;;5113935;28;19919;-29
2023/08/03 00:53:45;;;;;;;;;;;17.50;86.30;;;;;;5113877;28;19911;-29
2023/08/03 00:56:11;;;;;;;;;;;17.50;86.40;;;;;;5113850;28;19915;-29
2023/08/03 00:58:39;;;;;;;;;;;17.40;86.40;;;;;;5113821;28;19908;-29
2023/08/03 01:01:05;;;;;;;;;;;17.50;86.80;;;;;;5113453;28;19908;-29
2023/08/03 01:03:30;;;;;;;;;;;17.40;86.90;;;;;;5113346;28;19912;-29
2023/08/03 01:05:56;;;;;;;;;;;17.40;87.40;;;;;;5113435;28;19928;-28
2023/08/03 01:08:21;;;;;;;;;;;17.30;87.10;;;;;;5113609;28;19912;-30
2023/08/03 01:10:47;;;;;;;;;;;17.30;87.30;;;;;;5113504;28;19908;-29
2023/08/03 01:13:12;;;;;;;;;;;17.20;87.30;;;;;;5113420;28;20404;-27
2023/08/03 01:15:38;;;;;;;;;;;17.20;87.50;;;;;;5113480;28;20603;-28
2023/08/03 01:18:03;;;;;;;;;;;17.20;88.10;;;;;;5113659;28;20271;-28
2023/08/03 01:20:30;;;;;;;;;;;17.20;88.80;;;;;;5113381;28;19908;-35
2023/08/03 01:22:55;;;;;;;;;;;17.10;88.50;;;;;;5095010;28;19911;-30
2023/08/03 01:25:21;;;;;;;;;;;17.10;88.80;;;;;;5113279;28;19915;-30
2023/08/03 01:27:49;;;;;;;;;;;17.10;89.10;;;;;;5113230;28;19914;-27
2023/08/03 01:30:14;;;;;;;;;;;17.10;89.00;;;;;;5113205;28;19914;-28
2023/08/03 01:32:40;;;;;;;;;;;17.10;89.40;;;;;;5113020;28;19998;-29
2023/08/03 01:35:06;;;;;;;;;;;17.10;89.20;;;;;;5112934;28;19916;-35
2023/08/03 01:37:33;;;;;;;;;;;17.10;89.60;;;;;;5113123;28;19919;-30
2023/08/03 01:39:59;;;;;;;;;;;17.00;89.30;;;;;;5113087;28;20367;-28
2023/08/03 01:42:25;;;;;;;;;;;16.90;89.30;;;;;;5113346;28;19907;-29
2023/08/03 01:44:50;;;;;;;;;;;17.00;89.30;;;;;;5113007;28;19908;-27
2023/08/03 01:47:16;;;;;;;;;;;17.00;89.20;;;;;;5112870;28;19918;-29
2023/08/03 01:49:41;;;;;;;;;;;17.00;89.10;;;;;;5112849;28;19907;-27
2023/08/03 01:52:07;;;;;;;;;;;17.00;89.30;;;;;;5112823;28;19907;-28
2023/08/03 01:54:32;;;;;;;;;;;17.00;89.20;;;;;;5112793;28;19985;-27
2023/08/03 01:56:58;;;;;;;;;;;17.00;89.20;;;;;;5094619;28;19908;-29
2023/08/03 01:59:23;;;;;;;;;;;17.00;89.10;;;;;;5112798;28;20448;-30
2023/08/03 02:01:49;;;;;;;;;;;17.00;89.10;;;;;;5112836;28;20278;-28
2023/08/03 02:04:14;;;;;;;;;;;17.10;89.10;;;;;;5112665;28;19908;-28
2023/08/03 02:06:40;;;;;;;;;;;17.10;88.90;;;;;;5112670;28;20272;-28
2023/08/03 02:09:05;;;;;;;;;;;17.10;88.90;;;;;;5112683;28;20375;-28
2023/08/03 02:11:33;;;;;;;;;;;17.20;88.90;;;;;;5112170;28;20295;-28
2023/08/03 02:13:59;;;;;;;;;;;17.20;89.50;;;;;;5111748;28;20379;-27
2023/08/03 02:16:24;;;;;;;;;;;17.30;89.10;;;;;;5112587;28;19950;-28
2023/08/03 02:18:50;;;;;;;;;;;17.30;89.00;;;;;;5112604;28;19966;-29
2023/08/03 02:21:15;;;;;;;;;;;17.30;89.30;;;;;;5112567;28;20377;-27
2023/08/03 02:23:41;;;;;;;;;;;17.40;89.10;;;;;;5112582;28;19908;-27
2023/08/03 02:26:08;;;;;;;;;;;17.40;89.20;;;;;;5112520;28;19908;-28
2023/08/03 02:28:33;;;;;;;;;;;17.40;89.00;;;;;;5112798;28;19912;-27
2023/08/03 02:30:59;;;;;;;;;;;17.40;88.90;;;;;;5112529;28;20304;-30
2023/08/03 02:33:25;;;;;;;;;;;17.40;89.00;;;;;;5112301;28;20030;-29
2023/08/03 02:35:50;;;;;;;;;;;17.50;89.00;;;;;;5112373;28;20355;-28
2023/08/03 02:38:16;;;;;;;;;;;17.50;89.10;;;;;;5094151;28;19919;-28
2023/08/03 02:40:41;;;;;;;;;;;17.50;89.00;;;;;;5112384;28;20049;-28
2023/08/03 02:43:07;;;;;;;;;;;17.50;89.20;;;;;;5112279;28;20052;-30
2023/08/03 02:45:32;;;;;;;;;;;17.50;89.10;;;;;;5112427;28;19908;-31
2023/08/03 02:47:58;;;;;;;;;;;17.50;89.60;;;;;;5112326;28;19908;-28
2023/08/03 02:50:23;;;;;;;;;;;17.50;89.30;;;;;;5112312;28;19907;-30
2023/08/03 02:52:49;;;;;;;;;;;17.50;89.20;;;;;;5112326;28;19911;-29
2023/08/03 02:55:16;;;;;;;;;;;17.50;89.20;;;;;;5112204;28;19919;-29
2023/08/03 02:57:41;;;;;;;;;;;17.50;89.20;;;;;;5112305;28;19914;-28
2023/08/03 03:00:07;;;;;;;;;;;17.50;89.10;;;;;;5112230;28;20002;-28
2023/08/03 03:02:33;;;;;;;;;;;17.50;89.10;;;;;;5093926;28;19916;-30
2023/08/03 03:04:58;;;;;;;;;;;17.50;89.00;;;;;;5093555;28;20273;-29
2023/08/03 03:07:23;;;;;;;;;;;17.60;89.10;;;;;;5112127;28;19977;-29
2023/08/03 03:09:49;;;;;;;;;;;17.50;89.00;;;;;;5112169;28;19919;-30
2023/08/03 03:12:14;;;;;;;;;;;17.50;89.00;;;;;;5112108;28;19922;-28
2023/08/03 03:14:40;;;;;;;;;;;17.50;88.90;;;;;;5112025;28;19916;-28
2023/08/03 03:17:05;;;;;;;;;;;17.50;89.00;;;;;;5112315;28;19916;-30
2023/08/03 03:19:31;;;;;;;;;;;17.50;89.00;;;;;;5093936;28;19911;-27
2023/08/03 03:21:57;;;;;;;;;;;17.50;89.00;;;;;;5112382;28;20381;-28
2023/08/03 03:24:22;;;;;;;;;;;17.50;89.00;;;;;;5093898;28;20295;-28
2023/08/03 03:26:48;;;;;;;;;;;17.50;88.90;;;;;;5115670;28;19964;-28
2023/08/03 03:29:13;;;;;;;;;;;17.50;88.90;;;;;;5115620;28;19917;-28
2023/08/03 03:31:39;;;;;;;;;;;17.50;89.00;;;;;;5115642;28;19918;-31
2023/08/03 03:34:04;;;;;;;;;;;17.50;88.90;;;;;;5115506;28;19916;-28
2023/08/03 03:36:30;;;;;;;;;;;17.50;89.00;;;;;;5116130;28;19912;-31
2023/08/03 03:38:55;;;;;;;;;;;17.50;88.90;;;;;;5097016;28;19916;-29
2023/08/03 03:41:21;;;;;;;;;;;17.50;88.90;;;;;;5115488;28;20374;-29
2023/08/03 03:43:46;;;;;;;;;;;17.50;88.80;;;;;;5115311;28;19912;-27
2023/08/03 03:46:12;;;;;;;;;;;17.50;89.00;;;;;;5115276;28;19912;-32
2023/08/03 03:48:37;;;;;;;;;;;17.50;88.80;;;;;;5115223;28;19912;-27
2023/08/03 03:51:03;;;;;;;;;;;17.50;88.90;;;;;;5115265;28;19959;-29
2023/08/03 03:53:28;;;;;;;;;;;17.50;88.80;;;;;;5115006;28;20409;-29
2023/08/03 03:55:54;;;;;;;;;;;17.50;88.90;;;;;;5096742;28;19994;-28
2023/08/03 03:58:19;;;;;;;;;;;17.40;88.90;;;;;;5115006;28;19919;-29
2023/08/03 04:00:45;;;;;;;;;;;17.40;89.00;;;;;;5115044;28;19912;-30
2023/08/03 04:03:10;;;;;;;;;;;17.40;89.00;;;;;;5114966;28;19919;-29
2023/08/03 04:05:36;;;;;;;;;;;17.40;89.00;;;;;;5114819;28;19924;-31
2023/08/03 04:08:02;;;;;;;;;;;17.40;89.00;;;;;;5114532;28;19918;-29
2023/08/03 04:10:28;;;;;;;;;;;17.40;89.00;;;;;;5114853;28;20333;-29
2023/08/03 04:12:53;;;;;;;;;;;17.40;89.30;;;;;;5114741;28;20007;-29
2023/08/03 04:15:19;;;;;;;;;;;17.40;89.30;;;;;;5115043;28;19935;-29
2023/08/03 04:17:45;;;;;;;;;;;17.30;89.60;;;;;;5114752;28;19919;-30
2023/08/03 04:20:11;;;;;;;;;;;17.30;89.50;;;;;;5114758;28;19919;-28
2023/08/03 04:22:37;;;;;;;;;;;17.30;89.60;;;;;;5114636;28;20006;-28
2023/08/03 04:25:03;;;;;;;;;;;17.30;89.70;;;;;;5114660;28;20524;-30
2023/08/03 04:27:29;;;;;;;;;;;17.30;89.80;;;;;;5114623;28;19919;-31
2023/08/03 04:29:54;;;;;;;;;;;17.30;89.90;;;;;;5114478;28;20365;-31
2023/08/03 04:32:20;;;;;;;;;;;17.30;89.90;;;;;;5114404;28;19935;-29
2023/08/03 04:34:45;;;;;;;;;;;17.30;90.00;;;;;;5114235;28;20011;-29
2023/08/03 04:37:11;;;;;;;;;;;17.20;90.00;;;;;;5113536;28;19918;-32
2023/08/03 04:39:36;;;;;;;;;;;17.30;90.00;;;;;;5114260;28;19919;-29
2023/08/03 04:42:02;;;;;;;;;;;17.30;89.90;;;;;;5114177;28;19911;-28
2023/08/03 04:44:27;;;;;;;;;;;17.30;90.10;;;;;;5114350;28;20377;-28
2023/08/03 04:46:53;;;;;;;;;;;17.30;90.00;;;;;;5114258;28;19916;-29
2023/08/03 04:49:18;;;;;;;;;;;17.30;90.10;;;;;;5114108;28;19919;-32
2023/08/03 04:51:44;;;;;;;;;;;17.30;90.10;;;;;;5114329;28;19919;-28
2023/08/03 04:54:11;;;;;;;;;;;17.30;90.20;;;;;;5114154;28;20367;-29
2023/08/03 04:56:37;;;;;;;;;;;17.20;90.20;;;;;;5113895;28;19958;-31
2023/08/03 04:59:02;;;;;;;;;;;17.20;90.20;;;;;;5114115;28;19963;-31
2023/08/03 05:01:28;;;;;;;;;;;17.20;90.20;;;;;;5114039;28;19911;-34
2023/08/03 05:03:55;;;;;;;;;;;17.20;90.30;;;;;;5113629;28;20452;-32
2023/08/03 05:06:20;;;;;;;;;;;17.20;90.30;;;;;;5113533;28;19920;-29
2023/08/03 05:08:46;;;;;;;;;;;17.20;90.50;;;;;;5113669;28;19951;-31
2023/08/03 05:11:11;;;;;;;;;;;17.20;90.50;;;;;;5113775;28;20010;-30
2023/08/03 05:13:37;;;;;;;;;;;17.20;90.40;;;;;;5113507;28;20295;-30
2023/08/03 05:16:03;;;;;;;;;;;17.20;90.50;;;;;;5113749;28;19911;-30
2023/08/03 05:18:28;;;;;;;;;;;17.20;90.50;;;;;;5113542;28;20346;-30
2023/08/03 05:20:54;;;;;;;;;;;17.20;90.50;;;;;;5113471;28;19918;-30
2023/08/03 05:23:20;;;;;;;;;;;17.20;90.50;;;;;;5113347;28;19957;-30
2023/08/03 05:25:45;;;;;;;;;;;17.20;90.50;;;;;;5113382;28;19919;-29
2023/08/03 05:28:11;;;;;;;;;;;17.20;90.50;;;;;;5113434;28;20447;-29
2023/08/03 05:30:36;;;;;;;;;;;17.20;90.40;;;;;;5113261;28;19919;-32
2023/08/03 05:33:02;;;;;;;;;;;17.20;90.40;;;;;;5094866;28;19970;-30
2023/08/03 05:35:28;;;;;;;;;;;17.20;90.50;;;;;;5113088;28;19918;-30
2023/08/03 05:37:53;;;;;;;;;;;17.20;90.40;;;;;;5113009;28;19912;-30
2023/08/03 05:40:20;;;;;;;;;;;17.20;90.50;;;;;;5113161;28;20394;-30
2023/08/03 05:42:45;;;;;;;;;;;17.20;90.50;;;;;;5113152;28;19984;-31
2023/08/03 05:45:13;;;;;;;;;;;17.20;90.70;;;;;;5112949;28;19912;-28
2023/08/03 05:47:39;;;;;;;;;;;17.20;90.60;;;;;;5113152;28;20427;-30
2023/08/03 05:50:09;;;;;;;;;;;17.20;90.60;;;;;;5112978;28;19916;-29
2023/08/03 05:52:34;;;;;;;;;;;17.20;90.70;;;;;;5094619;28;19918;-30
2023/08/03 05:55:00;;;;;;;;;;;17.10;90.60;;;;;;5112868;28;20346;-29
2023/08/03 05:57:25;;;;;;;;;;;17.10;90.60;;;;;;5112735;28;19915;-29
2023/08/03 05:59:50;;;;;;;;;;;17.10;90.70;;;;;;5113201;28;19918;-30
2023/08/03 06:02:29;;;;;;;;;;;17.10;90.70;;;;;;5112758;28;19920;-30
2023/08/03 06:04:55;;;;;;;;;;;17.10;90.80;;;;;;5112603;28;20360;-32
2023/08/03 06:07:20;;;;;;;;;;;17.10;90.70;;;;;;5112752;28;20002;-31
2023/08/03 06:09:47;;;;;;;;;;;17.10;90.70;;;;;;5112706;28;19966;-30
2023/08/03 06:12:15;;;;;;;;;;;17.10;90.70;;;;;;5112630;28;19997;-34
2023/08/03 06:14:40;;;;;;;;;;;17.10;90.70;;;;;;5112395;28;19931;-29
2023/08/03 06:17:07;;;;;;;;;;;17.10;90.70;;;;;;5112533;28;20382;-31
2023/08/03 06:19:32;;;;;;;;;;;17.20;90.70;;;;;;5112751;28;19958;-30
2023/08/03 06:22:03;;;;;;;;;;;17.20;90.70;;;;;;5112584;28;19912;-30
2023/08/03 06:24:28;;;;;;;;;;;17.20;90.70;;;;;;5111711;28;19954;-29
2023/08/03 06:26:54;;;;;;;;;;;17.20;90.70;;;;;;5112556;28;19912;-34
2023/08/03 06:29:19;;;;;;;;;;;17.20;90.70;;;;;;5112486;28;19916;-31
2023/08/03 06:31:46;;;;;;;;;;;17.20;90.80;;;;;;5112555;28;20041;-32
2023/08/03 06:34:12;;;;;;;;;;;17.10;90.70;;;;;;5112422;28;19915;-31
2023/08/03 06:36:40;;;;;;;;;;;17.10;90.80;;;;;;5112419;28;19922;-30
2023/08/03 06:39:05;;;;;;;;;;;17.10;90.70;;;;;;5112275;28;19915;-30
2023/08/03 06:41:31;;;;;;;;;;;17.10;90.80;;;;;;5112377;28;19965;-33
2023/08/03 06:43:57;;;;;;;;;;;17.10;90.90;;;;;;5112430;28;20434;-34
2023/08/03 06:46:24;;;;;;;;;;;17.10;90.80;;;;;;5112517;28;19918;-31
2023/08/03 06:48:50;;;;;;;;;;;17.10;90.80;;;;;;5112286;28;19912;-34
2023/08/03 06:51:16;;;;;;;;;;;17.10;90.70;;;;;;5112257;28;19912;-32
2023/08/03 06:53:42;;;;;;;;;;;17.10;90.70;;;;;;5093857;28;20023;-31
2023/08/03 06:56:07;;;;;;;;;;;17.10;90.70;;;;;;5112002;28;19911;-31
2023/08/03 06:58:33;;;;;;;;;;;17.20;90.70;;;;;;5112276;28;19968;-30
2023/08/03 07:00:58;;;;;;;;;;;17.20;90.70;;;;;;5114971;28;19912;-32
2023/08/03 07:03:24;;;;;;;;;;;17.20;90.70;;;;;;5116030;28;20393;-32
2023/08/03 07:05:49;;;;;;;;;;;17.20;90.70;;;;;;5115979;28;19920;-30
2023/08/03 07:08:15;;;;;;;;;;;17.20;90.70;;;;;;5116014;28;19957;-30
2023/08/03 07:10:41;;;;;;;;;;;17.20;90.80;;;;;;5116271;28;20394;-31
2023/08/03 07:13:06;;;;;;;;;;;17.20;90.70;;;;;;5115775;28;19916;-30
2023/08/03 07:15:34;;;;;;;;;;;17.30;90.70;;;;;;5115908;28;20435;-31
2023/08/03 07:18:00;;;;;;;;;;;17.30;90.60;;;;;;5115812;28;19987;-33
2023/08/03 07:20:26;;;;;;;;;;;17.30;90.60;;;;;;5115749;28;19911;-32
2023/08/03 07:22:52;;;;;;;;;;;17.30;90.60;;;;;;5115779;28;20014;-30
2023/08/03 07:25:17;;;;;;;;;;;17.30;90.60;;;;;;5115605;28;19919;-30
2023/08/03 07:27:44;;;;;;;;;;;17.20;90.70;;;;;;5115546;28;19911;-31
2023/08/03 07:30:09;;;;;;;;;;;17.20;90.70;;;;;;5115448;28;19962;-31
2023/08/03 07:32:35;;;;;;;;;;;17.20;90.70;;;;;;5115657;28;19951;-31
2023/08/03 07:35:01;;;;;;;;;;;17.20;90.70;;;;;;5115360;28;19920;-31
2023/08/03 07:37:26;;;;;;;;;;;17.20;90.70;;;;;;5115322;28;19912;-32
2023/08/03 07:39:52;;;;;;;;;;;17.20;90.80;;;;;;5115365;28;19918;-31
2023/08/03 07:42:17;;;;;;;;;;;17.10;90.90;;;;;;5115277;28;19964;-32
2023/08/03 07:44:43;;;;;;;;;;;17.10;90.90;;;;;;5115312;28;19919;-31
2023/08/03 07:47:08;;;;;;;;;;;17.20;90.90;;;;;;5115077;28;20011;-33
2023/08/03 07:49:34;;;;;;;;;;;17.20;90.90;;;;;;5096900;28;19977;-31
2023/08/03 07:51:59;;;;;;;;;;;17.30;90.90;;;;;;5115062;28;19919;-30
2023/08/03 07:54:25;;;;;;;;;;;17.30;91.00;;;;;;5115157;28;19938;-32
2023/08/03 07:56:50;;;;;;;;;;;17.30;90.90;;;;;;5115066;28;20000;-35
2023/08/03 07:59:16;;;;;;;;;;;17.40;90.90;;;;;;5115067;28;19919;-37
2023/08/03 08:01:43;;;;;;;;;;;17.40;90.90;;;;;;5114967;28;19912;-31
2023/08/03 08:04:09;;;;;;;;;;;17.50;90.80;;;;;;5114635;28;19918;-36
2023/08/03 08:06:35;;;;;;;;;;;17.50;90.80;;;;;;5114867;28;20014;-32
2023/08/03 08:09:00;;;;;;;;;;;17.50;90.90;;;;;;5114741;28;20002;-32
2023/08/03 08:11:26;;;;;;;;;;;17.50;90.90;;;;;;5113477;28;19918;-33
2023/08/03 08:13:51;;;;;;;;;;;17.50;90.80;;;;;;5114635;28;20345;-32
2023/08/03 08:16:17;;;;;;;;;;;17.50;91.00;;;;;;5114688;28;19911;-36
2023/08/03 08:18:42;;;;;;;;;;;17.40;90.90;;;;;;5114610;28;19912;-30
2023/08/03 08:21:11;;;;;;;;;;;17.40;90.90;;;;;;5114683;28;19912;-30
2023/08/03 08:23:37;;;;;;;;;;;17.50;91.00;;;;;;5114567;28;19915;-36
2023/08/03 08:26:16;;;;;;;;;;;17.50;91.00;;;;;;5114584;28;19912;-31
2023/08/03 08:28:43;;;;;;;;;;;17.50;90.90;;;;;;5114490;28;19912;-34
2023/08/03 08:31:08;;;;;;;;;;;17.50;91.00;;;;;;5114416;28;20402;-32
2023/08/03 08:33:34;;;;;;;;;;;17.50;91.10;;;;;;5114509;28;19916;-35
2023/08/03 08:36:00;;;;;;;;;;;17.50;91.10;;;;;;5114408;28;19919;-32
2023/08/03 08:38:25;;;;;;;;;;;17.40;91.40;;;;;;5114243;28;19919;-31
2023/08/03 08:40:51;;;;;;;;;;;17.40;91.30;;;;;;5095864;28;19912;-31
2023/08/03 08:43:20;;;;;;;;;;;17.40;91.30;;;;;;5114478;28;19919;-36
2023/08/03 08:45:46;;;;;;;;;;;17.40;91.30;;;;;;5114335;28;20340;-37
2023/08/03 08:48:11;;;;;;;;;;;17.50;91.30;;;;;;5114287;28;19955;-33
2023/08/03 08:50:37;;;;;;;;;;;17.60;91.30;;;;;;5112666;28;20220;-37
2023/08/03 08:53:03;;;;;;;;;;;17.70;91.50;;;;;;5094242;28;19961;-34
2023/08/03 08:55:29;;;;;;;;;;;17.70;91.20;;;;;;5112663;28;19919;-34
2023/08/03 08:57:55;;;;;;;;;;;17.80;91.20;;;;;;5112563;28;19969;-31
2023/08/03 09:00:24;;;;;;;;;;;17.80;91.20;;;;;;5112706;28;19912;-31
2023/08/03 09:02:52;;;;;;;;;;;17.90;91.30;;;;;;5113806;28;19951;-36
2023/08/03 09:05:19;;;;;;;;;;;18.00;91.20;;;;;;5113463;28;20351;-36
2023/08/03 09:07:45;;;;;;;;;;;18.10;91.20;;;;;;5114118;28;19912;-36
2023/08/03 09:10:11;;;;;;;;;;;18.30;91.10;;;;;;5113549;28;20010;-35
2023/08/03 09:12:38;;;;;;;;;;;18.50;91.00;;;;;;5113649;28;19916;-34
2023/08/03 09:15:04;;;;;;;;;;;18.70;90.80;;;;;;5113335;28;19938;-32
2023/08/03 09:17:30;;;;;;;;;;;18.70;90.70;;;;;;5094958;28;19912;-33
2023/08/03 09:19:55;;;;;;;;;;;18.70;90.70;;;;;;5113370;28;19965;-34
2023/08/03 09:22:22;;;;;;;;;;;18.70;90.70;;;;;;5113111;28;19908;-36
2023/08/03 09:25:09;;;;;;;;;;;18.70;90.70;;;;;;5113211;28;19908;-37
2023/08/03 09:27:36;;;;;;;;;;;18.80;90.70;;;;;;5113339;28;19908;-33
2023/08/03 09:30:03;;;;;;;;;;;18.90;90.60;;;;;;5113275;28;19915;-37
2023/08/03 09:32:34;;;;;;;;;;;19.00;90.50;;;;;;5113496;28;19939;-35
2023/08/03 09:35:00;;;;;;;;;;;19.20;90.50;;;;;;5113263;28;19919;-32
2023/08/03 09:37:33;;;;;;;;;;;19.20;90.30;;;;;;5113432;28;19953;-33
2023/08/03 09:39:58;;;;;;;;;;;19.40;90.30;;;;;;5113277;28;19908;-40
2023/08/03 09:42:24;;;;;;;;;;;19.50;90.20;;;;;;5112850;28;19908;-38
2023/08/03 09:44:53;;;;;;;;;;;19.70;90.20;;;;;;5113256;28;19964;-34
2023/08/03 09:47:18;;;;;;;;;;;19.80;90.10;;;;;;5094631;28;19908;-35
2023/08/03 09:49:44;;;;;;;;;;;19.90;90.00;;;;;;5112933;28;20359;-35
2023/08/03 09:52:10;;;;;;;;;;;19.90;89.90;;;;;;5112931;28;19957;-35
2023/08/03 09:54:45;;;;;;;;;;;19.90;89.80;;;;;;5112813;28;19976;-34
2023/08/03 09:57:13;;;;;;;;;;;20.00;89.70;;;;;;5112903;28;19955;-32
2023/08/03 09:59:42;;;;;;;;;;;20.10;89.50;;;;;;5112918;28;20341;-32
2023/08/03 10:02:09;;;;;;;;;;;20.30;89.50;;;;;;5112764;28;19908;-33
2023/08/03 10:04:40;;;;;;;;;;;20.30;89.20;;;;;;5112542;28;19920;-34
2023/08/03 10:07:05;;;;;;;;;;;20.40;89.10;;;;;;5112811;28;19915;-41
2023/08/03 10:09:37;;;;;;;;;;;20.30;88.90;;;;;;5112781;28;20188;-38
2023/08/03 10:12:04;;;;;;;;;;;20.10;89.00;;;;;;5112640;28;19957;-34
2023/08/03 10:14:36;;;;;;;;;;;20.00;89.20;;;;;;5112425;28;19912;-36
2023/08/03 10:17:04;;;;;;;;;;;19.80;89.60;;;;;;5112882;28;19998;-35
2023/08/03 10:19:31;;;;;;;;;;;19.50;89.90;;;;;;5112557;28;19952;-33
2023/08/03 10:21:57;;;;;;;;;;;19.40;90.40;;;;;;5112692;28;19908;-32
2023/08/03 10:24:22;;;;;;;;;;;19.30;90.20;;;;;;5112562;28;19914;-34
2023/08/03 10:26:54;;;;;;;;;;;19.30;90.30;;;;;;5094183;28;19908;-33
2023/08/03 10:29:45;;;;;;;;;;;19.50;90.30;;;;;;5112503;28;19908;-34
2023/08/03 10:32:17;;;;;;;;;;;19.70;90.30;;;;;;5112310;28;19908;-36
2023/08/03 10:34:43;;;;;;;;;;;19.80;90.00;;;;;;5113250;28;19968;-37
2023/08/03 10:37:11;;;;;;;;;;;20.00;90.00;;;;;;5116641;28;19957;-33
2023/08/03 10:39:49;;;;;;;;;;;19.90;89.70;;;;;;5116516;28;19907;-35
2023/08/03 10:42:32;;;;;;;;;;;19.90;89.90;;;;;;5116488;28;19915;-34
2023/08/03 10:45:18;;;;;;;;;;;19.80;89.90;;;;;;5116500;28;20261;-32
2023/08/03 10:47:43;;;;;;;;;;;19.60;90.00;;;;;;5117079;28;19961;-33
2023/08/03 10:50:09;;;;;;;;;;;19.50;90.00;;;;;;5116457;28;19908;-35
2023/08/03 10:52:34;;;;;;;;;;;19.40;90.00;;;;;;5116267;28;19907;-32
2023/08/03 10:55:19;;;;;;;;;;;19.30;90.10;;;;;;5116146;28;20057;-44
2023/08/03 10:57:45;;;;;;;;;;;19.20;90.10;;;;;;5116474;28;19931;-32
2023/08/03 11:00:11;;;;;;;;;;;19.10;90.20;;;;;;5115968;28;19908;-39
2023/08/03 11:02:36;;;;;;;;;;;19.00;90.20;;;;;;5116055;28;19920;-33
2023/08/03 11:05:04;;;;;;;;;;;19.00;90.20;;;;;;5115977;28;19927;-36
2023/08/03 11:07:32;;;;;;;;;;;19.00;90.30;;;;;;5115953;28;19908;-32
2023/08/03 11:09:59;;;;;;;;;;;19.00;90.30;;;;;;5115972;28;19908;-33
2023/08/03 11:12:25;;;;;;;;;;;19.00;90.30;;;;;;5115876;28;19907;-34
2023/08/03 11:14:52;;;;;;;;;;;19.20;90.30;;;;;;5115814;28;19957;-33
2023/08/03 11:17:19;;;;;;;;;;;19.30;90.00;;;;;;5116115;28;19961;-35
2023/08/03 11:19:45;;;;;;;;;;;19.40;90.00;;;;;;5116133;28;19908;-37
2023/08/03 11:22:11;;;;;;;;;;;19.50;89.80;;;;;;5115999;28;19908;-33
2023/08/03 11:24:37;;;;;;;;;;;19.50;89.70;;;;;;5115995;28;20256;-37
2023/08/03 11:27:03;;;;;;;;;;;19.50;89.70;;;;;;5115737;28;19953;-36
2023/08/03 11:29:29;;;;;;;;;;;19.30;89.70;;;;;;5115829;28;19908;-35
2023/08/03 11:31:55;;;;;;;;;;;19.30;90.00;;;;;;5115563;28;19908;-35
2023/08/03 11:34:23;;;;;;;;;;;19.20;90.00;;;;;;5115376;28;19911;-34
2023/08/03 11:36:49;;;;;;;;;;;19.10;90.10;;;;;;5115581;28;19915;-35
2023/08/03 11:39:14;;;;;;;;;;;19.10;90.10;;;;;;5115354;28;19907;-34
2023/08/03 11:41:41;;;;;;;;;;;19.20;90.10;;;;;;5115486;28;20278;-40
2023/08/03 11:44:06;;;;;;;;;;;19.30;90.10;;;;;;5115296;28;20362;-37
2023/08/03 11:46:32;;;;;;;;;;;19.40;90.00;;;;;;5115128;28;19995;-37
2023/08/03 11:48:58;;;;;;;;;;;19.50;89.90;;;;;;5097044;28;19908;-36
2023/08/03 11:51:33;;;;;;;;;;;19.60;89.70;;;;;;5115186;28;19968;-38
2023/08/03 11:54:03;;;;;;;;;;;19.60;89.70;;;;;;5115271;28;20366;-35
2023/08/03 11:56:28;;;;;;;;;;;19.60;89.60;;;;;;5115060;28;19947;-41
2023/08/03 11:58:55;;;;;;;;;;;19.60;89.70;;;;;;5115303;28;19915;-38
2023/08/03 12:01:23;;;;;;;;;;;19.60;89.70;;;;;;5114861;28;19907;-35
2023/08/03 12:03:49;;;;;;;;;;;19.50;89.50;;;;;;5114819;28;19907;-33
2023/08/03 12:06:14;;;;;;;;;;;19.40;89.60;;;;;;5114530;28;19968;-35
2023/08/03 12:08:43;;;;;;;;;;;19.40;89.70;;;;;;5115017;28;19915;-36
2023/08/03 12:11:08;;;;;;;;;;;19.40;89.90;;;;;;5115062;28;20270;-33
2023/08/03 12:13:35;;;;;;;;;;;19.50;89.80;;;;;;5114591;28;19911;-32
2023/08/03 12:16:01;;;;;;;;;;;19.70;89.30;;;;;;5114832;28;20389;-34
2023/08/03 12:18:26;;;;;;;;;;;19.70;89.00;;;;;;5114550;28;19919;-39
2023/08/03 12:20:52;;;;;;;;;;;19.70;89.00;;;;;;5114518;28;19908;-33
2023/08/03 12:23:17;;;;;;;;;;;19.80;88.90;;;;;;5114906;28;19908;-36
2023/08/03 12:25:43;;;;;;;;;;;19.80;89.00;;;;;;5115133;28;19973;-33
2023/08/03 12:28:08;;;;;;;;;;;19.80;88.80;;;;;;5114659;28;20378;-44
2023/08/03 12:30:34;;;;;;;;;;;19.90;88.60;;;;;;5115079;28;19997;-35
2023/08/03 12:33:00;;;;;;;;;;;20.00;88.70;;;;;;5114405;28;19907;-33
2023/08/03 12:35:25;;;;;;;;;;;20.10;88.40;;;;;;5114516;28;19912;-37
2023/08/03 12:37:51;;;;;;;;;;;20.10;88.00;;;;;;5114563;28;19994;-35
2023/08/03 12:40:16;;;;;;;;;;;20.00;88.30;;;;;;5114128;28;19916;-35
2023/08/03 12:42:42;;;;;;;;;;;19.90;88.00;;;;;;5114160;28;19911;-37
2023/08/03 12:45:07;;;;;;;;;;;19.90;86.80;;;;;;5095845;28;20003;-33
2023/08/03 12:47:33;;;;;;;;;;;19.80;87.70;;;;;;5113929;28;19912;-36
2023/08/03 12:49:58;;;;;;;;;;;19.90;87.90;;;;;;5114548;28;19908;-32
2023/08/03 12:52:25;;;;;;;;;;;19.90;87.70;;;;;;5114257;28;19947;-39
2023/08/03 12:54:50;;;;;;;;;;;19.90;87.60;;;;;;5114093;28;20356;-37
2023/08/03 12:57:16;;;;;;;;;;;20.00;87.70;;;;;;5113106;28;19912;-33
2023/08/03 12:59:41;;;;;;;;;;;20.10;88.10;;;;;;5113826;28;19908;-35
2023/08/03 13:02:07;;;;;;;;;;;20.20;86.70;;;;;;5113781;28;20024;-34
2023/08/03 13:04:32;;;;;;;;;;;20.10;87.00;;;;;;5113398;28;19919;-34
2023/08/03 13:06:58;;;;;;;;;;;20.20;86.60;;;;;;5113760;28;19912;-37
2023/08/03 13:09:23;;;;;;;;;;;20.20;86.10;;;;;;5113559;28;19943;-35
2023/08/03 13:11:49;;;;;;;;;;;20.30;86.30;;;;;;5113626;28;19987;-36
2023/08/03 13:14:14;;;;;;;;;;;20.20;86.40;;;;;;5113480;28;19919;-35
2023/08/03 13:16:40;;;;;;;;;;;20.10;85.80;;;;;;5113491;28;19916;-34
2023/08/03 13:19:05;;;;;;;;;;;20.00;85.10;;;;;;5113653;28;20387;-36
2023/08/03 13:21:31;;;;;;;;;;;19.80;84.90;;;;;;5113337;28;20363;-32
2023/08/03 13:23:56;;;;;;;;;;;19.50;85.70;;;;;;5113415;28;20304;-34
2023/08/03 13:26:22;;;;;;;;;;;19.20;86.70;;;;;;5113263;28;19915;-38
2023/08/03 13:28:50;;;;;;;;;;;19.00;87.60;;;;;;5113250;28;19907;-34
2023/08/03 13:31:19;;;;;;;;;;;19.00;88.10;;;;;;5113712;28;19908;-34
2023/08/03 13:33:44;;;;;;;;;;;19.00;88.40;;;;;;5113160;28;20336;-33
2023/08/03 13:36:10;;;;;;;;;;;19.00;88.40;;;;;;5113437;28;19915;-33
2023/08/03 13:38:35;;;;;;;;;;;19.20;88.20;;;;;;5113445;28;19907;-33
2023/08/03 13:41:01;;;;;;;;;;;19.30;88.00;;;;;;5094744;28;19908;-33
2023/08/03 13:43:27;;;;;;;;;;;19.30;87.60;;;;;;5112976;28;19914;-35
2023/08/03 13:45:52;;;;;;;;;;;19.40;87.50;;;;;;5113193;28;19999;-36
2023/08/03 13:48:18;;;;;;;;;;;19.50;87.00;;;;;;5113296;28;19908;-36
2023/08/03 13:50:43;;;;;;;;;;;19.50;86.90;;;;;;5094742;28;20303;-34
2023/08/03 13:53:09;;;;;;;;;;;19.50;86.00;;;;;;5112951;28;19907;-37
2023/08/03 13:55:34;;;;;;;;;;;19.50;86.40;;;;;;5112766;28;19911;-34
2023/08/03 13:58:00;;;;;;;;;;;19.50;86.30;;;;;;5113039;28;20024;-40
2023/08/03 14:00:25;;;;;;;;;;;19.60;86.00;;;;;;5112861;28;19995;-37
2023/08/03 14:02:51;;;;;;;;;;;19.60;86.10;;;;;;5113139;28;19908;-37
2023/08/03 14:05:16;;;;;;;;;;;19.60;86.00;;;;;;5112471;28;19927;-35
2023/08/03 14:07:42;;;;;;;;;;;19.70;85.70;;;;;;5094764;28;19915;-35
2023/08/03 14:10:08;;;;;;;;;;;19.80;85.60;;;;;;5112664;28;19908;-38